sensor_id;sensor_type;location;lat;lon;timestamp;temperature;humidity
68177;DHT22;56478;50.982;7.032;2023-09-18T00:00:48;21.55;80.64
68177;DHT22;56478;50.982;7.032;2023-09-18T00:03:17;21.53;80.67
68177;DHT22;56478;50.982;7.032;2023-09-18T00:05:45;21.52;80.41
68177;DHT22;56478;50.982;7.032;2023-09-18T00:08:11;21.48;80.59
68177;DHT22;56478;50.982;7.032;2023-09-18T00:10:36;21.48;80.69
68177;DHT22;56478;50.982;7.032;2023-09-18T00:13:02;21.46;80.86
68177;DHT22;56478;50.982;7.032;2023-09-18T00:15:28;21.48;80.50
68177;DHT22;56478;50.982;7.032;2023-09-18T00:17:54;21.46;80.78
68177;DHT22;56478;50.982;7.032;2023-09-18T00:20:19;21.46;81.12
68177;DHT22;56478;50.982;7.032;2023-09-18T00:22:45;21.51;81.24
68177;DHT22;56478;50.982;7.032;2023-09-18T00:25:12;21.48;80.49
68177;DHT22;56478;50.982;7.032;2023-09-18T00:27:38;21.46;80.91
68177;DHT22;56478;50.982;7.032;2023-09-18T00:30:04;21.34;80.84
68177;DHT22;56478;50.982;7.032;2023-09-18T00:32:30;21.32;81.05
68177;DHT22;56478;50.982;7.032;2023-09-18T00:34:56;21.28;80.99
68177;DHT22;56478;50.982;7.032;2023-09-18T00:37:21;21.24;81.34
68177;DHT22;56478;50.982;7.032;2023-09-18T00:39:49;21.18;81.12
68177;DHT22;56478;50.982;7.032;2023-09-18T00:42:15;21.18;81.23
68177;DHT22;56478;50.982;7.032;2023-09-18T00:44:43;21.21;81.40
68177;DHT22;56478;50.982;7.032;2023-09-18T00:47:10;21.20;81.18
68177;DHT22;56478;50.982;7.032;2023-09-18T00:49:38;21.20;81.28
68177;DHT22;56478;50.982;7.032;2023-09-18T00:52:06;21.12;81.60
68177;DHT22;56478;50.982;7.032;2023-09-18T00:54:33;21.06;81.94
68177;DHT22;56478;50.982;7.032;2023-09-18T00:57:00;21.04;81.93
68177;DHT22;56478;50.982;7.032;2023-09-18T00:59:25;21.03;82.09
68177;DHT22;56478;50.982;7.032;2023-09-18T01:01:52;20.98;82.09
68177;DHT22;56478;50.982;7.032;2023-09-18T01:04:18;20.98;82.09
68177;DHT22;56478;50.982;7.032;2023-09-18T01:06:44;20.97;82.09
68177;DHT22;56478;50.982;7.032;2023-09-18T01:09:09;21.03;82.01
68177;DHT22;56478;50.982;7.032;2023-09-18T01:17:10;21.11;81.44
68177;DHT22;56478;50.982;7.032;2023-09-18T01:19:37;21.20;80.74
68177;DHT22;56478;50.982;7.032;2023-09-18T01:22:05;21.23;80.91
68177;DHT22;56478;50.982;7.032;2023-09-18T01:24:34;21.21;80.52
68177;DHT22;56478;50.982;7.032;2023-09-18T01:27:00;21.27;79.66
68177;DHT22;56478;50.982;7.032;2023-09-18T01:29:26;21.31;79.59
68177;DHT22;56478;50.982;7.032;2023-09-18T01:31:52;21.34;78.68
68177;DHT22;56478;50.982;7.032;2023-09-18T01:34:19;21.35;78.71
68177;DHT22;56478;50.982;7.032;2023-09-18T01:36:47;21.37;78.57
68177;DHT22;56478;50.982;7.032;2023-09-18T01:39:14;21.35;78.74
68177;DHT22;56478;50.982;7.032;2023-09-18T01:41:40;21.35;78.39
68177;DHT22;56478;50.982;7.032;2023-09-18T01:44:06;21.39;78.43
68177;DHT22;56478;50.982;7.032;2023-09-18T01:46:33;21.39;79.37
68177;DHT22;56478;50.982;7.032;2023-09-18T01:49:02;21.42;78.80
68177;DHT22;56478;50.982;7.032;2023-09-18T01:51:29;21.48;78.57
68177;DHT22;56478;50.982;7.032;2023-09-18T01:53:56;21.51;77.49
68177;DHT22;56478;50.982;7.032;2023-09-18T01:56:22;21.53;78.46
68177;DHT22;56478;50.982;7.032;2023-09-18T01:58:47;21.53;77.55
68177;DHT22;56478;50.982;7.032;2023-09-18T02:01:13;21.62;76.44
68177;DHT22;56478;50.982;7.032;2023-09-18T02:03:38;21.63;77.74
68177;DHT22;56478;50.982;7.032;2023-09-18T02:06:10;21.69;76.27
68177;DHT22;56478;50.982;7.032;2023-09-18T02:08:36;21.80;75.36
68177;DHT22;56478;50.982;7.032;2023-09-18T02:11:01;21.82;75.38
68177;DHT22;56478;50.982;7.032;2023-09-18T02:13:30;21.86;75.33
68177;DHT22;56478;50.982;7.032;2023-09-18T02:15:56;21.92;74.74
68177;DHT22;56478;50.982;7.032;2023-09-18T02:18:21;21.96;74.59
68177;DHT22;56478;50.982;7.032;2023-09-18T02:20:47;22.03;74.22
68177;DHT22;56478;50.982;7.032;2023-09-18T02:23:15;22.04;74.31
68177;DHT22;56478;50.982;7.032;2023-09-18T02:25:40;22.05;74.11
68177;DHT22;56478;50.982;7.032;2023-09-18T02:28:07;22.01;74.35
68177;DHT22;56478;50.982;7.032;2023-09-18T02:30:32;22.01;74.49
68177;DHT22;56478;50.982;7.032;2023-09-18T02:32:58;22.08;74.15
68177;DHT22;56478;50.982;7.032;2023-09-18T02:35:25;22.04;74.56
68177;DHT22;56478;50.982;7.032;2023-09-18T02:37:51;22.05;74.50
68177;DHT22;56478;50.982;7.032;2023-09-18T02:40:17;22.01;74.73
68177;DHT22;56478;50.982;7.032;2023-09-18T02:42:43;21.90;75.62
68177;DHT22;56478;50.982;7.032;2023-09-18T02:45:09;21.90;76.13
68177;DHT22;56478;50.982;7.032;2023-09-18T02:47:35;21.86;76.25
68177;DHT22;56478;50.982;7.032;2023-09-18T02:50:04;21.80;77.01
68177;DHT22;56478;50.982;7.032;2023-09-18T02:52:30;21.82;76.77
68177;DHT22;56478;50.982;7.032;2023-09-18T02:54:56;21.85;76.35
68177;DHT22;56478;50.982;7.032;2023-09-18T02:57:21;21.79;77.14
68177;DHT22;56478;50.982;7.032;2023-09-18T02:59:47;21.82;76.64
68177;DHT22;56478;50.982;7.032;2023-09-18T03:02:13;21.83;76.72
68177;DHT22;56478;50.982;7.032;2023-09-18T03:04:38;21.79;76.92
68177;DHT22;56478;50.982;7.032;2023-09-18T03:07:04;21.76;77.90
68177;DHT22;56478;50.982;7.032;2023-09-18T03:09:30;21.75;79.87
68177;DHT22;56478;50.982;7.032;2023-09-18T03:11:56;21.72;79.62
68177;DHT22;56478;50.982;7.032;2023-09-18T03:14:21;21.72;80.33
68177;DHT22;56478;50.982;7.032;2023-09-18T03:16:47;21.66;79.66
68177;DHT22;56478;50.982;7.032;2023-09-18T03:19:38;21.66;82.07
68177;DHT22;56478;50.982;7.032;2023-09-18T03:22:03;21.63;82.88
68177;DHT22;56478;50.982;7.032;2023-09-18T03:24:29;21.76;80.11
68177;DHT22;56478;50.982;7.032;2023-09-18T03:26:55;21.69;80.49
68177;DHT22;56478;50.982;7.032;2023-09-18T03:29:20;21.63;81.61
68177;DHT22;56478;50.982;7.032;2023-09-18T03:31:46;21.38;82.62
68177;DHT22;56478;50.982;7.032;2023-09-18T03:34:11;21.35;83.91
68177;DHT22;56478;50.982;7.032;2023-09-18T03:36:37;21.25;83.76
68177;DHT22;56478;50.982;7.032;2023-09-18T03:39:04;21.23;83.62
68177;DHT22;56478;50.982;7.032;2023-09-18T03:41:30;21.08;83.64
68177;DHT22;56478;50.982;7.032;2023-09-18T03:44:00;21.18;82.98
68177;DHT22;56478;50.982;7.032;2023-09-18T03:46:26;21.32;82.28
68177;DHT22;56478;50.982;7.032;2023-09-18T03:48:52;21.38;82.02
68177;DHT22;56478;50.982;7.032;2023-09-18T03:51:17;21.39;82.03
68177;DHT22;56478;50.982;7.032;2023-09-18T03:53:44;21.39;81.97
68177;DHT22;56478;50.982;7.032;2023-09-18T03:56:10;21.37;82.20
68177;DHT22;56478;50.982;7.032;2023-09-18T03:58:36;21.35;82.17
68177;DHT22;56478;50.982;7.032;2023-09-18T04:01:01;21.34;81.97
68177;DHT22;56478;50.982;7.032;2023-09-18T04:03:27;21.24;82.63
68177;DHT22;56478;50.982;7.032;2023-09-18T04:05:52;21.24;82.66
68177;DHT22;56478;50.982;7.032;2023-09-18T04:08:18;21.24;82.62
68177;DHT22;56478;50.982;7.032;2023-09-18T04:10:44;21.24;82.74
68177;DHT22;56478;50.982;7.032;2023-09-18T04:13:10;21.27;82.75
68177;DHT22;56478;50.982;7.032;2023-09-18T04:15:37;21.30;82.05
68177;DHT22;56478;50.982;7.032;2023-09-18T04:18:04;21.24;82.00
68177;DHT22;56478;50.982;7.032;2023-09-18T04:20:31;21.24;82.61
68177;DHT22;56478;50.982;7.032;2023-09-18T04:25:44;21.14;82.75
68177;DHT22;56478;50.982;7.032;2023-09-18T04:28:11;21.07;82.41
68177;DHT22;56478;50.982;7.032;2023-09-18T04:30:38;21.01;82.77
68177;DHT22;56478;50.982;7.032;2023-09-18T04:33:03;21.00;82.93
68177;DHT22;56478;50.982;7.032;2023-09-18T04:35:29;20.93;83.16
68177;DHT22;56478;50.982;7.032;2023-09-18T04:37:58;20.90;83.11
68177;DHT22;56478;50.982;7.032;2023-09-18T04:40:25;20.89;83.34
68177;DHT22;56478;50.982;7.032;2023-09-18T04:42:52;20.86;83.59
68177;DHT22;56478;50.982;7.032;2023-09-18T04:45:18;20.77;83.89
68177;DHT22;56478;50.982;7.032;2023-09-18T04:47:43;20.79;83.54
68177;DHT22;56478;50.982;7.032;2023-09-18T04:50:10;20.77;83.30
68177;DHT22;56478;50.982;7.032;2023-09-18T04:52:36;20.73;83.32
68177;DHT22;56478;50.982;7.032;2023-09-18T04:55:01;20.72;83.67
68177;DHT22;56478;50.982;7.032;2023-09-18T04:57:28;20.71;84.26
68177;DHT22;56478;50.982;7.032;2023-09-18T05:06:53;20.87;82.78
68177;DHT22;56478;50.982;7.032;2023-09-18T05:09:21;20.93;82.12
68177;DHT22;56478;50.982;7.032;2023-09-18T05:11:52;20.90;82.84
68177;DHT22;56478;50.982;7.032;2023-09-18T05:14:17;20.84;82.90
68177;DHT22;56478;50.982;7.032;2023-09-18T05:16:43;20.87;82.78
68177;DHT22;56478;50.982;7.032;2023-09-18T05:19:09;20.82;82.98
68177;DHT22;56478;50.982;7.032;2023-09-18T05:21:37;20.93;82.25
68177;DHT22;56478;50.982;7.032;2023-09-18T05:24:03;20.93;82.75
68177;DHT22;56478;50.982;7.032;2023-09-18T05:26:38;20.98;82.18
68177;DHT22;56478;50.982;7.032;2023-09-18T05:29:28;20.94;82.33
68177;DHT22;56478;50.982;7.032;2023-09-18T05:31:56;21.00;82.01
68177;DHT22;56478;50.982;7.032;2023-09-18T05:34:24;21.01;81.54
68177;DHT22;56478;50.982;7.032;2023-09-18T05:36:53;20.98;81.60
68177;DHT22;56478;50.982;7.032;2023-09-18T05:39:18;20.91;81.92
68177;DHT22;56478;50.982;7.032;2023-09-18T05:41:47;20.91;82.35
68177;DHT22;56478;50.982;7.032;2023-09-18T05:44:14;20.86;82.80
68177;DHT22;56478;50.982;7.032;2023-09-18T05:46:45;20.86;82.41
68177;DHT22;56478;50.982;7.032;2023-09-18T05:49:11;20.90;82.49
68177;DHT22;56478;50.982;7.032;2023-09-18T05:52:17;20.98;82.04
68177;DHT22;56478;50.982;7.032;2023-09-18T05:54:43;21.04;81.86
68177;DHT22;56478;50.982;7.032;2023-09-18T05:57:08;21.11;81.22
68177;DHT22;56478;50.982;7.032;2023-09-18T05:59:34;21.17;81.34
68177;DHT22;56478;50.982;7.032;2023-09-18T06:01:59;21.17;81.65
68177;DHT22;56478;50.982;7.032;2023-09-18T06:04:25;21.21;80.87
68177;DHT22;56478;50.982;7.032;2023-09-18T06:06:50;21.24;80.44
68177;DHT22;56478;50.982;7.032;2023-09-18T06:09:16;21.31;79.76
68177;DHT22;56478;50.982;7.032;2023-09-18T06:11:42;21.35;79.70
68177;DHT22;56478;50.982;7.032;2023-09-18T06:14:08;21.37;79.27
68177;DHT22;56478;50.982;7.032;2023-09-18T06:16:36;21.39;80.02
68177;DHT22;56478;50.982;7.032;2023-09-18T06:22:15;21.51;79.16
68177;DHT22;56478;50.982;7.032;2023-09-18T06:30:50;21.69;77.31
68177;DHT22;56478;50.982;7.032;2023-09-18T06:33:30;21.75;76.73
68177;DHT22;56478;50.982;7.032;2023-09-18T06:36:17;21.83;76.46
68177;DHT22;56478;50.982;7.032;2023-09-18T06:38:47;21.77;76.71
68177;DHT22;56478;50.982;7.032;2023-09-18T06:42:08;21.96;76.15
68177;DHT22;56478;50.982;7.032;2023-09-18T06:44:51;21.94;76.57
68177;DHT22;56478;50.982;7.032;2023-09-18T06:47:33;22.11;75.53
68177;DHT22;56478;50.982;7.032;2023-09-18T06:50:22;22.20;75.76
68177;DHT22;56478;50.982;7.032;2023-09-18T06:52:50;22.27;75.17
68177;DHT22;56478;50.982;7.032;2023-09-18T06:56:01;22.22;74.61
68177;DHT22;56478;50.982;7.032;2023-09-18T06:58:26;22.15;75.58
68177;DHT22;56478;50.982;7.032;2023-09-18T07:00:54;22.27;74.93
68177;DHT22;56478;50.982;7.032;2023-09-18T07:03:23;22.24;74.83
68177;DHT22;56478;50.982;7.032;2023-09-18T07:06:10;22.25;74.60
68177;DHT22;56478;50.982;7.032;2023-09-18T07:08:38;22.20;75.11
68177;DHT22;56478;50.982;7.032;2023-09-18T07:11:10;22.35;74.71
68177;DHT22;56478;50.982;7.032;2023-09-18T07:13:37;22.42;74.00
68177;DHT22;56478;50.982;7.032;2023-09-18T07:16:21;22.56;73.29
68177;DHT22;56478;50.982;7.032;2023-09-18T07:18:49;22.66;72.74
68177;DHT22;56478;50.982;7.032;2023-09-18T07:21:43;22.87;72.25
68177;DHT22;56478;50.982;7.032;2023-09-18T07:24:13;22.90;71.94
68177;DHT22;56478;50.982;7.032;2023-09-18T07:26:46;22.98;71.25
68177;DHT22;56478;50.982;7.032;2023-09-18T07:29:12;23.07;71.20
68177;DHT22;56478;50.982;7.032;2023-09-18T07:31:39;22.74;72.38
68177;DHT22;56478;50.982;7.032;2023-09-18T07:34:06;22.96;71.43
68177;DHT22;56478;50.982;7.032;2023-09-18T07:36:39;22.84;71.67
68177;DHT22;56478;50.982;7.032;2023-09-18T07:39:05;22.74;72.25
68177;DHT22;56478;50.982;7.032;2023-09-18T07:41:40;22.79;72.09
68177;DHT22;56478;50.982;7.032;2023-09-18T07:44:06;22.82;72.22
68177;DHT22;56478;50.982;7.032;2023-09-18T07:46:34;23.28;71.19
68177;DHT22;56478;50.982;7.032;2023-09-18T07:49:12;23.62;69.65
68177;DHT22;56478;50.982;7.032;2023-09-18T07:51:54;23.35;70.43
68177;DHT22;56478;50.982;7.032;2023-09-18T07:54:22;23.21;70.36
68177;DHT22;56478;50.982;7.032;2023-09-18T07:56:48;22.82;71.36
68177;DHT22;56478;50.982;7.032;2023-09-18T07:59:20;22.60;71.40
68177;DHT22;56478;50.982;7.032;2023-09-18T08:01:49;22.55;72.14
68177;DHT22;56478;50.982;7.032;2023-09-18T08:04:14;22.55;72.88
68177;DHT22;56478;50.982;7.032;2023-09-18T08:06:40;22.55;72.44
68177;DHT22;56478;50.982;7.032;2023-09-18T08:09:20;22.44;72.47
68177;DHT22;56478;50.982;7.032;2023-09-18T08:12:09;22.42;72.42
68177;DHT22;56478;50.982;7.032;2023-09-18T08:14:42;22.65;71.05
68177;DHT22;56478;50.982;7.032;2023-09-18T08:17:17;22.51;72.85
68177;DHT22;56478;50.982;7.032;2023-09-18T08:20:10;22.45;73.19
68177;DHT22;56478;50.982;7.032;2023-09-18T08:22:41;22.49;70.94
68177;DHT22;56478;50.982;7.032;2023-09-18T08:25:17;22.56;71.11
68177;DHT22;56478;50.982;7.032;2023-09-18T08:27:45;22.62;70.92
68177;DHT22;56478;50.982;7.032;2023-09-18T08:30:14;22.70;70.27
68177;DHT22;56478;50.982;7.032;2023-09-18T08:38:43;22.79;70.20
68177;DHT22;56478;50.982;7.032;2023-09-18T08:41:10;22.77;69.93
68177;DHT22;56478;50.982;7.032;2023-09-18T08:43:37;22.84;69.92
68177;DHT22;56478;50.982;7.032;2023-09-18T08:46:10;22.84;69.70
68177;DHT22;56478;50.982;7.032;2023-09-18T08:48:36;22.86;69.90
68177;DHT22;56478;50.982;7.032;2023-09-18T08:51:04;22.90;69.92
68177;DHT22;56478;50.982;7.032;2023-09-18T08:56:55;22.82;69.89
68177;DHT22;56478;50.982;7.032;2023-09-18T08:59:31;23.01;69.29
68177;DHT22;56478;50.982;7.032;2023-09-18T09:05:16;23.55;68.08
68177;DHT22;56478;50.982;7.032;2023-09-18T09:07:42;23.76;67.46
68177;DHT22;56478;50.982;7.032;2023-09-18T09:10:08;23.70;68.70
68177;DHT22;56478;50.982;7.032;2023-09-18T09:15:14;23.53;69.09
68177;DHT22;56478;50.982;7.032;2023-09-18T09:17:41;23.62;67.55
68177;DHT22;56478;50.982;7.032;2023-09-18T09:20:08;23.51;67.75
68177;DHT22;56478;50.982;7.032;2023-09-18T09:22:41;23.53;67.72
68177;DHT22;56478;50.982;7.032;2023-09-18T09:27:45;23.58;67.36
68177;DHT22;56478;50.982;7.032;2023-09-18T09:30:34;23.52;67.76
68177;DHT22;56478;50.982;7.032;2023-09-18T09:33:12;23.38;68.27
68177;DHT22;56478;50.982;7.032;2023-09-18T09:35:38;23.48;68.56
68177;DHT22;56478;50.982;7.032;2023-09-18T09:38:11;23.48;67.01
68177;DHT22;56478;50.982;7.032;2023-09-18T09:40:42;23.77;67.08
68177;DHT22;56478;50.982;7.032;2023-09-18T09:43:12;24.05;66.65
68177;DHT22;56478;50.982;7.032;2023-09-18T09:45:46;24.10;65.94
68177;DHT22;56478;50.982;7.032;2023-09-18T09:48:11;24.03;65.62
68177;DHT22;56478;50.982;7.032;2023-09-18T09:50:46;23.98;65.47
68177;DHT22;56478;50.982;7.032;2023-09-18T09:53:12;23.83;66.29
68177;DHT22;56478;50.982;7.032;2023-09-18T09:55:40;24.05;66.40
68177;DHT22;56478;50.982;7.032;2023-09-18T09:58:07;24.33;64.62
68177;DHT22;56478;50.982;7.032;2023-09-18T10:00:43;24.49;64.15
68177;DHT22;56478;50.982;7.032;2023-09-18T10:03:14;24.52;64.21
68177;DHT22;56478;50.982;7.032;2023-09-18T10:05:45;24.76;63.16
68177;DHT22;56478;50.982;7.032;2023-09-18T10:08:23;24.73;63.88
68177;DHT22;56478;50.982;7.032;2023-09-18T10:10:52;24.97;61.99
68177;DHT22;56478;50.982;7.032;2023-09-18T10:13:27;26.11;58.99
68177;DHT22;56478;50.982;7.032;2023-09-18T10:15:56;26.81;57.37
68177;DHT22;56478;50.982;7.032;2023-09-18T10:18:38;27.69;55.52
68177;DHT22;56478;50.982;7.032;2023-09-18T10:26:35;29.64;49.68
68177;DHT22;56478;50.982;7.032;2023-09-18T10:29:04;29.54;50.02
68177;DHT22;56478;50.982;7.032;2023-09-18T10:31:33;28.46;52.22
68177;DHT22;56478;50.982;7.032;2023-09-18T10:34:01;29.59;50.30
68177;DHT22;56478;50.982;7.032;2023-09-18T10:36:34;30.94;46.74
68177;DHT22;56478;50.982;7.032;2023-09-18T10:39:05;31.27;46.06
68177;DHT22;56478;50.982;7.032;2023-09-18T10:41:55;29.56;49.10
68177;DHT22;56478;50.982;7.032;2023-09-18T10:44:28;29.66;49.47
68177;DHT22;56478;50.982;7.032;2023-09-18T10:46:54;30.06;48.06
68177;DHT22;56478;50.982;7.032;2023-09-18T10:49:21;30.05;48.05
68177;DHT22;56478;50.982;7.032;2023-09-18T10:51:48;29.87;49.29
68177;DHT22;56478;50.982;7.032;2023-09-18T10:54:22;29.15;50.04
68177;DHT22;56478;50.982;7.032;2023-09-18T10:56:48;29.42;48.90
68177;DHT22;56478;50.982;7.032;2023-09-18T10:59:15;28.22;51.88
68177;DHT22;56478;50.982;7.032;2023-09-18T11:01:44;27.93;51.82
68177;DHT22;56478;50.982;7.032;2023-09-18T11:04:17;27.80;52.75
68177;DHT22;56478;50.982;7.032;2023-09-18T11:09:23;27.97;52.49
68177;DHT22;56478;50.982;7.032;2023-09-18T11:12:02;28.11;52.31
68177;DHT22;56478;50.982;7.032;2023-09-18T11:15:24;28.42;50.87
68177;DHT22;56478;50.982;7.032;2023-09-18T11:18:01;28.14;52.91
68177;DHT22;56478;50.982;7.032;2023-09-18T11:20:31;28.22;50.92
68177;DHT22;56478;50.982;7.032;2023-09-18T11:25:41;28.08;50.34
68177;DHT22;56478;50.982;7.032;2023-09-18T11:28:09;27.98;50.37
68177;DHT22;56478;50.982;7.032;2023-09-18T11:30:38;28.09;50.30
68177;DHT22;56478;50.982;7.032;2023-09-18T11:33:13;28.06;51.10
68177;DHT22;56478;50.982;7.032;2023-09-18T13:05:04;27.69;48.02
68177;DHT22;56478;50.982;7.032;2023-09-18T13:08:00;27.64;47.10
68177;DHT22;56478;50.982;7.032;2023-09-18T13:10:47;27.52;46.92
68177;DHT22;56478;50.982;7.032;2023-09-18T14:04:56;26.91;48.08
68177;DHT22;56478;50.982;7.032;2023-09-18T14:13:50;26.80;47.86
68177;DHT22;56478;50.982;7.032;2023-09-18T14:16:32;27.01;47.52
68177;DHT22;56478;50.982;7.032;2023-09-18T14:23:16;27.28;45.16
68177;DHT22;56478;50.982;7.032;2023-09-18T14:25:45;27.08;44.97
68177;DHT22;56478;50.982;7.032;2023-09-18T14:28:20;26.83;45.65
68177;DHT22;56478;50.982;7.032;2023-09-18T14:30:49;26.88;46.39
68177;DHT22;56478;50.982;7.032;2023-09-18T14:33:15;26.76;47.68
68177;DHT22;56478;50.982;7.032;2023-09-18T14:35:40;26.67;46.36
68177;DHT22;56478;50.982;7.032;2023-09-18T14:38:06;26.59;46.99
68177;DHT22;56478;50.982;7.032;2023-09-18T14:40:32;26.60;46.45
68177;DHT22;56478;50.982;7.032;2023-09-18T14:42:57;26.35;47.05
68177;DHT22;56478;50.982;7.032;2023-09-18T14:45:26;26.22;47.01
68177;DHT22;56478;50.982;7.032;2023-09-18T14:47:51;26.22;47.81
68177;DHT22;56478;50.982;7.032;2023-09-18T14:50:17;26.08;47.85
68177;DHT22;56478;50.982;7.032;2023-09-18T14:52:43;26.20;46.98
68177;DHT22;56478;50.982;7.032;2023-09-18T14:55:08;26.06;48.51
68177;DHT22;56478;50.982;7.032;2023-09-18T14:57:34;26.02;48.53
68177;DHT22;56478;50.982;7.032;2023-09-18T14:59:59;25.98;48.62
68177;DHT22;56478;50.982;7.032;2023-09-18T15:02:25;26.01;47.77
68177;DHT22;56478;50.982;7.032;2023-09-18T15:04:55;26.05;47.05
68177;DHT22;56478;50.982;7.032;2023-09-18T15:07:21;26.08;47.70
68177;DHT22;56478;50.982;7.032;2023-09-18T15:09:46;25.95;46.84
68177;DHT22;56478;50.982;7.032;2023-09-18T15:12:12;25.84;47.78
68177;DHT22;56478;50.982;7.032;2023-09-18T15:14:40;25.77;47.65
68177;DHT22;56478;50.982;7.032;2023-09-18T15:17:14;25.78;48.24
68177;DHT22;56478;50.982;7.032;2023-09-18T15:19:53;25.91;47.14
68177;DHT22;56478;50.982;7.032;2023-09-18T15:22:21;25.81;47.62
68177;DHT22;56478;50.982;7.032;2023-09-18T15:24:47;25.84;47.54
68177;DHT22;56478;50.982;7.032;2023-09-18T15:27:13;25.83;47.84
68177;DHT22;56478;50.982;7.032;2023-09-18T15:29:38;25.90;46.85
68177;DHT22;56478;50.982;7.032;2023-09-18T15:32:07;25.76;49.31
68177;DHT22;56478;50.982;7.032;2023-09-18T15:34:33;25.78;48.23
68177;DHT22;56478;50.982;7.032;2023-09-18T15:36:59;25.76;47.07
68177;DHT22;56478;50.982;7.032;2023-09-18T15:39:27;25.80;47.68
68177;DHT22;56478;50.982;7.032;2023-09-18T15:41:54;25.87;46.92
68177;DHT22;56478;50.982;7.032;2023-09-18T15:44:20;25.90;47.54
68177;DHT22;56478;50.982;7.032;2023-09-18T15:46:46;25.78;48.02
68177;DHT22;56478;50.982;7.032;2023-09-18T15:49:11;25.56;47.70
68177;DHT22;56478;50.982;7.032;2023-09-18T15:51:37;25.47;48.51
68177;DHT22;56478;50.982;7.032;2023-09-18T15:54:06;25.52;50.01
68177;DHT22;56478;50.982;7.032;2023-09-18T15:56:37;25.47;48.15
68177;DHT22;56478;50.982;7.032;2023-09-18T15:59:13;25.32;49.90
68177;DHT22;56478;50.982;7.032;2023-09-18T16:01:42;25.29;48.53
68177;DHT22;56478;50.982;7.032;2023-09-18T16:04:11;25.32;48.84
68177;DHT22;56478;50.982;7.032;2023-09-18T16:06:51;25.31;48.51
68177;DHT22;56478;50.982;7.032;2023-09-18T16:09:17;25.24;48.55
68177;DHT22;56478;50.982;7.032;2023-09-18T16:11:43;25.29;48.10
68177;DHT22;56478;50.982;7.032;2023-09-18T16:14:08;25.28;47.92
68177;DHT22;56478;50.982;7.032;2023-09-18T16:16:34;25.17;48.38
68177;DHT22;56478;50.982;7.032;2023-09-18T16:19:00;25.14;48.18
68177;DHT22;56478;50.982;7.032;2023-09-18T16:21:26;25.25;48.03
68177;DHT22;56478;50.982;7.032;2023-09-18T16:23:52;25.26;48.65
68177;DHT22;56478;50.982;7.032;2023-09-18T16:26:20;25.29;48.34
68177;DHT22;56478;50.982;7.032;2023-09-18T16:28:46;25.07;48.96
68177;DHT22;56478;50.982;7.032;2023-09-18T16:31:12;25.12;49.26
68177;DHT22;56478;50.982;7.032;2023-09-18T16:33:38;25.10;49.32
68177;DHT22;56478;50.982;7.032;2023-09-18T16:36:06;25.11;49.08
68177;DHT22;56478;50.982;7.032;2023-09-18T16:38:32;25.10;49.19
68177;DHT22;56478;50.982;7.032;2023-09-18T16:41:05;25.07;49.11
68177;DHT22;56478;50.982;7.032;2023-09-18T16:43:31;24.97;49.51
68177;DHT22;56478;50.982;7.032;2023-09-18T16:45:57;24.86;50.14
68177;DHT22;56478;50.982;7.032;2023-09-18T16:48:22;24.76;50.83
68177;DHT22;56478;50.982;7.032;2023-09-18T16:50:49;24.69;50.37
68177;DHT22;56478;50.982;7.032;2023-09-18T16:53:15;24.60;50.96
68177;DHT22;56478;50.982;7.032;2023-09-18T16:55:41;24.63;50.44
68177;DHT22;56478;50.982;7.032;2023-09-18T16:58:06;24.51;54.30
68177;DHT22;56478;50.982;7.032;2023-09-18T17:00:32;24.46;52.57
68177;DHT22;56478;50.982;7.032;2023-09-18T17:02:57;24.36;52.40
68177;DHT22;56478;50.982;7.032;2023-09-18T17:05:23;24.33;51.48
68177;DHT22;56478;50.982;7.032;2023-09-18T17:07:49;24.32;52.43
68177;DHT22;56478;50.982;7.032;2023-09-18T17:10:15;24.33;52.09
68177;DHT22;56478;50.982;7.032;2023-09-18T17:12:41;24.36;51.79
68177;DHT22;56478;50.982;7.032;2023-09-18T17:15:10;24.24;52.06
68177;DHT22;56478;50.982;7.032;2023-09-18T17:17:35;24.18;52.07
68177;DHT22;56478;50.982;7.032;2023-09-18T17:20:01;24.20;52.04
68177;DHT22;56478;50.982;7.032;2023-09-18T17:22:29;24.18;52.17
68177;DHT22;56478;50.982;7.032;2023-09-18T17:24:55;24.18;54.19
68177;DHT22;56478;50.982;7.032;2023-09-18T17:27:21;24.18;52.38
68177;DHT22;56478;50.982;7.032;2023-09-18T17:29:46;24.07;52.80
68177;DHT22;56478;50.982;7.032;2023-09-18T17:32:12;24.10;52.76
68177;DHT22;56478;50.982;7.032;2023-09-18T17:34:37;24.05;52.44
68177;DHT22;56478;50.982;7.032;2023-09-18T17:37:06;24.00;52.47
68177;DHT22;56478;50.982;7.032;2023-09-18T17:39:31;23.98;52.46
68177;DHT22;56478;50.982;7.032;2023-09-18T17:41:57;23.96;52.72
68177;DHT22;56478;50.982;7.032;2023-09-18T17:44:23;23.98;52.71
68177;DHT22;56478;50.982;7.032;2023-09-18T17:46:49;23.96;52.88
68177;DHT22;56478;50.982;7.032;2023-09-18T17:49:15;23.92;53.09
68177;DHT22;56478;50.982;7.032;2023-09-18T17:51:40;23.88;53.36
68177;DHT22;56478;50.982;7.032;2023-09-18T17:54:06;23.92;53.31
68177;DHT22;56478;50.982;7.032;2023-09-18T17:56:33;23.94;52.93
68177;DHT22;56478;50.982;7.032;2023-09-18T17:58:58;23.90;53.49
68177;DHT22;56478;50.982;7.032;2023-09-18T18:01:24;23.87;53.70
68177;DHT22;56478;50.982;7.032;2023-09-18T18:03:50;23.94;53.27
68177;DHT22;56478;50.982;7.032;2023-09-18T18:06:17;23.93;53.67
68177;DHT22;56478;50.982;7.032;2023-09-18T18:08:43;23.98;53.88
68177;DHT22;56478;50.982;7.032;2023-09-18T18:11:10;23.88;54.35
68177;DHT22;56478;50.982;7.032;2023-09-18T18:13:38;23.86;53.76
68177;DHT22;56478;50.982;7.032;2023-09-18T18:16:04;23.84;54.55
68177;DHT22;56478;50.982;7.032;2023-09-18T18:18:31;23.63;53.68
68177;DHT22;56478;50.982;7.032;2023-09-18T18:20:57;22.90;56.13
68177;DHT22;56478;50.982;7.032;2023-09-18T18:23:22;22.27;64.16
68177;DHT22;56478;50.982;7.032;2023-09-18T18:25:51;21.62;67.58
68177;DHT22;56478;50.982;7.032;2023-09-18T18:28:19;21.10;71.76
68177;DHT22;56478;50.982;7.032;2023-09-18T18:30:49;20.57;74.31
68177;DHT22;56478;50.982;7.032;2023-09-18T18:33:17;20.39;74.40
68177;DHT22;56478;50.982;7.032;2023-09-18T18:35:48;20.24;75.99
68177;DHT22;56478;50.982;7.032;2023-09-18T18:38:16;19.90;76.36
68177;DHT22;56478;50.982;7.032;2023-09-18T18:40:54;19.79;77.73
68177;DHT22;56478;50.982;7.032;2023-09-18T18:43:47;19.73;79.11
68177;DHT22;56478;50.982;7.032;2023-09-18T18:46:13;19.58;78.64
68177;DHT22;56478;50.982;7.032;2023-09-18T18:48:42;19.68;79.87
68177;DHT22;56478;50.982;7.032;2023-09-18T18:51:13;19.63;79.58
68177;DHT22;56478;50.982;7.032;2023-09-18T18:53:43;19.66;78.94
68177;DHT22;56478;50.982;7.032;2023-09-18T18:56:12;19.65;79.21
68177;DHT22;56478;50.982;7.032;2023-09-18T18:58:48;19.65;77.95
68177;DHT22;56478;50.982;7.032;2023-09-18T19:01:17;19.62;78.95
68177;DHT22;56478;50.982;7.032;2023-09-18T19:04:19;19.59;78.00
68177;DHT22;56478;50.982;7.032;2023-09-18T19:07:27;19.63;77.58